Time;durP1;ratioP1;P1;durP2;ratioP2;P2;SDS_P1;SDS_P2;PMS_P1;PMS_P2;Temp;Humidity;BMP_temperature;BMP_pressure;BME280_temperature;BME280_humidity;BME280_pressure;Samples;Min_cycle;Max_cycle;Signal;HPM_P1;HPM_P2
2021/06/09 00:02:18;;;;;;;12.88;8.83;;;;;;;15.59;87.47;100757.77;714087;1201;115322;-82
2021/06/09 00:17:40;;;;;;;16.03;9.28;;;;;;;15.35;90.03;100739.92;714037;1199;115252;-81
2021/06/09 00:33:02;;;;;;;15.40;9.33;;;;;;;15.39;93.00;100739.47;714255;1200;115016;-81
2021/06/09 00:48:28;;;;;;;23.80;12.57;;;;;;;15.38;94.10;100732.52;714345;1199;114691;-80
2021/06/09 01:03:50;;;;;;;17.85;11.93;;;;;;;15.35;97.43;100731.98;714134;1202;114000;-80
2021/06/09 01:19:11;;;;;;;17.40;9.98;;;;;;;15.26;96.30;100733.77;714114;1199;114634;-81
2021/06/09 01:34:32;;;;;;;19.70;11.87;;;;;;;15.09;98.64;100736.28;714208;1200;114010;-80
2021/06/09 01:49:53;;;;;;;21.20;13.40;;;;;;;15.05;98.84;100742.05;714203;1199;114626;-80
2021/06/09 02:05:14;;;;;;;39.80;20.98;;;;;;;15.12;99.92;100741.28;714061;1199;115296;-82
2021/06/09 02:20:44;;;;;;;29.43;16.53;;;;;;;15.48;100.00;100737.72;714007;1199;115425;-81
2021/06/09 02:36:06;;;;;;;37.35;19.95;;;;;;;15.74;100.00;100737.66;714162;1199;114356;-80
2021/06/09 02:51:40;;;;;;;36.68;20.30;;;;;;;15.78;100.00;100728.45;714098;1199;115458;-81
2021/06/09 03:07:39;;;;;;;26.83;18.18;;;;;;;15.77;100.00;100734.72;714045;1199;114788;-81
2021/06/09 03:23:31;;;;;;;22.98;15.25;;;;;;;15.83;100.00;100732.46;713292;1202;115214;-81
2021/06/09 03:39:06;;;;;;;25.83;16.10;;;;;;;15.95;100.00;100726.70;714134;1201;115179;-81
2021/06/09 03:54:32;;;;;;;34.15;20.48;;;;;;;15.90;100.00;100730.83;714341;1199;114645;-81
2021/06/09 04:09:55;;;;;;;38.65;20.30;;;;;;;15.90;100.00;100738.77;714436;1202;115397;-81
2021/06/09 04:25:15;;;;;;;26.53;17.90;;;;;;;16.30;100.00;100735.42;714374;1200;114636;-81
2021/06/09 04:40:35;;;;;;;26.50;18.93;;;;;;;16.66;100.00;100741.45;715803;1176;115777;-82
2021/06/09 04:55:56;;;;;;;25.77;17.37;;;;;;;17.24;100.00;100742.30;714153;1199;113832;-82
2021/06/09 05:11:23;;;;;;;16.48;13.53;;;;;;;18.13;100.00;100739.55;716720;1165;114795;-85
2021/06/09 05:26:46;;;;;;;26.80;18.05;;;;;;;18.63;100.00;100735.61;714038;1200;114773;-86
2021/06/09 05:42:12;;;;;;;15.85;12.25;;;;;;;18.95;100.00;100739.03;714047;1200;115864;-85
2021/06/09 05:57:33;;;;;;;11.20;8.57;;;;;;;19.54;100.00;100716.16;713999;1183;114587;-82
2021/06/09 06:12:55;;;;;;;10.85;9.13;;;;;;;19.95;94.89;100730.84;713856;1203;115619;-83
2021/06/09 06:28:16;;;;;;;10.50;7.07;;;;;;;20.47;91.86;100731.64;713737;1200;113881;-82
2021/06/09 06:43:38;;;;;;;8.28;5.88;;;;;;;20.95;88.22;100720.40;713941;1203;115544;-86
2021/06/09 06:58:59;;;;;;;8.13;6.00;;;;;;;21.50;84.97;100717.89;713925;1203;115678;-86
2021/06/09 07:14:29;;;;;;;8.50;4.50;;;;;;;21.76;81.43;100711.06;713704;1201;113730;-80
2021/06/09 07:29:49;;;;;;;;;;;;;;;22.39;74.45;100710.86;713761;1204;115254;-81
2021/06/09 07:45:12;;;;;;;5.63;2.27;;;;;;;22.76;68.79;100703.31;713886;1199;100895;-80
2021/06/09 08:00:33;;;;;;;4.20;2.97;;;;;;;24.04;69.17;100706.52;714549;1199;115096;-89
2021/06/09 08:15:55;;;;;;;3.75;3.20;;;;;;;24.42;67.50;100716.38;714890;1187;114174;-88
2021/06/09 08:31:19;;;;;;;4.25;2.90;;;;;;;25.83;64.95;100719.66;731503;1199;113738;-89
2021/06/09 08:46:40;;;;;;;3.45;2.85;;;;;;;26.36;62.79;100723.52;714167;1202;114091;-89
2021/06/09 09:02:01;;;;;;;3.80;2.58;;;;;;;26.60;61.30;100726.25;714372;1199;113708;-88
2021/06/09 09:17:21;;;;;;;3.98;2.83;;;;;;;25.86;59.62;100722.69;714496;1199;114541;-87
2021/06/09 09:33:07;;;;;;;7.23;1.88;;;;;;;25.83;57.74;100727.72;714812;1203;114010;-78
2021/06/09 09:48:27;;;;;;;6.07;2.20;;;;;;;26.32;55.31;100725.83;714148;1199;113881;-80
2021/06/09 10:03:51;;;;;;;2.75;1.80;;;;;;;26.84;50.72;100733.31;714855;1199;115469;-79
2021/06/09 10:19:14;;;;;;;3.97;2.13;;;;;;;26.76;50.60;100738.23;714274;1200;114262;-80
2021/06/09 10:34:37;;;;;;;9.03;5.80;;;;;;;27.57;50.52;100735.78;714451;1200;113721;-80
2021/06/09 10:50:00;;;;;;;3.37;2.43;;;;;;;28.11;50.48;100734.68;714219;1199;113834;-80
2021/06/09 11:05:21;;;;;;;5.73;2.93;;;;;;;29.42;49.90;100727.34;715260;1198;115122;-80
2021/06/09 11:20:47;;;;;;;4.20;2.03;;;;;;;29.16;47.83;100726.95;714835;1199;114735;-79
2021/06/09 11:36:14;;;;;;;5.08;2.30;;;;;;;29.46;47.93;100714.16;715015;1200;114013;-78
2021/06/09 11:52:02;;;;;;;8.43;3.13;;;;;;;29.98;48.19;100702.86;714608;1199;114169;-78
2021/06/09 12:07:27;;;;;;;3.15;2.10;;;;;;;28.83;47.52;100706.24;720910;1175;114700;-78
2021/06/09 12:22:56;;;;;;;3.88;2.33;;;;;;;29.15;47.50;100684.00;723991;1202;114495;-78
2021/06/09 12:38:27;;;;;;;2.30;1.95;;;;;;;29.04;46.50;100675.77;716092;1203;114115;-78
2021/06/09 12:53:48;;;;;;;2.10;1.60;;;;;;;30.24;46.15;100657.13;714540;1199;113912;-79
2021/06/09 13:09:08;;;;;;;2.68;1.55;;;;;;;28.95;44.38;100655.66;716136;1176;113677;-78
2021/06/09 13:24:34;;;;;;;4.40;1.80;;;;;;;28.58;44.95;100634.59;715708;1203;113868;-78
2021/06/09 13:40:10;;;;;;;4.25;2.20;;;;;;;28.51;45.15;100634.77;714332;1199;113852;-78
2021/06/09 13:55:41;;;;;;;1.70;1.50;;;;;;;29.56;45.53;100611.58;714783;1177;114272;-77
2021/06/09 14:11:03;;;;;;;3.70;1.70;;;;;;;28.77;45.39;100618.16;715603;1199;115285;-78
2021/06/09 14:26:24;;;;;;;2.40;1.60;;;;;;;28.86;45.50;100603.16;714535;1199;113423;-78
2021/06/09 14:41:48;;;;;;;4.20;1.68;;;;;;;28.75;46.03;100601.41;714521;1199;115052;-78
2021/06/09 14:57:29;;;;;;;6.05;4.53;;;;;;;28.85;46.68;100599.66;714518;1174;113658;-77
2021/06/09 15:12:49;;;;;;;4.18;1.53;;;;;;;28.49;44.73;100590.21;714774;1199;114946;-77
2021/06/09 15:28:11;;;;;;;5.47;1.43;;;;;;;27.78;45.11;100587.97;714323;1175;114295;-80
2021/06/09 15:43:34;;;;;;;2.88;1.80;;;;;;;27.29;45.00;100580.30;714272;1199;113978;-79
2021/06/09 15:58:55;;;;;;;5.07;2.03;;;;;;;27.64;45.58;100577.49;715187;1199;113788;-78
2021/06/09 16:14:17;;;;;;;3.65;2.15;;;;;;;27.37;46.06;100580.78;714614;1200;113621;-78
2021/06/09 16:29:38;;;;;;;53.43;40.40;;;;;;;27.04;47.99;100593.02;715169;1174;113818;-88
2021/06/09 16:44:59;;;;;;;4.33;3.93;;;;;;;26.49;47.85;100596.09;715072;1200;114575;-86
2021/06/09 17:00:21;;;;;;;3.75;2.83;;;;;;;26.35;48.27;100608.93;715073;1199;115160;-88
2021/06/09 17:16:05;;;;;;;6.95;3.78;;;;;;;25.81;50.68;100619.65;715015;1199;114106;-85
2021/06/09 17:31:26;;;;;;;10.80;6.13;;;;;;;25.38;52.76;100622.27;714748;1202;115476;-79
2021/06/09 17:46:47;;;;;;;3.30;3.00;;;;;;;24.79;54.46;100637.14;714907;1174;113955;-77
2021/06/09 18:02:19;;;;;;;12.40;6.67;;;;;;;24.39;55.88;100628.36;714761;1202;113838;-77
2021/06/09 18:17:41;;;;;;;10.38;4.83;;;;;;;23.81;57.34;100625.83;714271;1199;115257;-78
2021/06/09 18:33:03;;;;;;;9.00;4.50;;;;;;;23.30;58.33;100622.98;714310;1199;114525;-77
2021/06/09 18:48:24;;;;;;;12.23;6.97;;;;;;;22.65;60.32;100636.27;714785;1200;113668;-77
2021/06/09 19:03:44;;;;;;;12.10;5.48;;;;;;;22.07;61.49;100649.13;714811;1203;113857;-76
2021/06/09 19:19:07;;;;;;;11.15;5.53;;;;;;;21.55;61.79;100656.78;714582;1200;114554;-77
2021/06/09 19:34:28;;;;;;;6.80;4.20;;;;;;;21.18;62.78;100671.31;714677;1200;113914;-77
2021/06/09 19:49:48;;;;;;;11.57;5.90;;;;;;;20.62;63.74;100686.27;714745;1178;113887;-75
2021/06/09 20:05:10;;;;;;;8.53;4.85;;;;;;;20.24;65.60;100691.84;714715;1199;113434;-76
2021/06/09 20:20:31;;;;;;;10.28;6.25;;;;;;;19.90;67.76;100706.62;714637;1182;115776;-75
2021/06/09 20:35:51;;;;;;;10.13;6.23;;;;;;;19.47;70.19;100703.80;714599;1175;115186;-77
2021/06/09 20:51:12;;;;;;;20.27;11.37;;;;;;;19.19;72.67;100717.70;714603;1174;114065;-77
2021/06/09 21:06:33;;;;;;;17.95;10.53;;;;;;;18.94;74.61;100733.91;714732;1199;115315;-77
2021/06/09 21:21:54;;;;;;;18.90;8.87;;;;;;;18.43;76.05;100726.44;714585;1199;115028;-78
2021/06/09 21:37:14;;;;;;;16.75;7.75;;;;;;;17.69;78.25;100726.78;714444;1177;114835;-77
2021/06/09 21:52:34;;;;;;;9.50;6.13;;;;;;;17.32;81.17;100730.86;714190;1200;114672;-77
2021/06/09 22:07:55;;;;;;;10.70;6.80;;;;;;;17.00;83.76;100717.48;713748;1199;114936;-78
2021/06/09 22:23:15;;;;;;;7.95;6.13;;;;;;;16.60;85.00;100719.93;713500;1199;115157;-78
2021/06/09 22:38:36;;;;;;;16.93;9.67;;;;;;;16.31;87.02;100723.00;713614;1199;114954;-78
2021/06/09 22:53:56;;;;;;;11.90;8.30;;;;;;;16.01;89.58;100704.09;713610;1200;114503;-76
2021/06/09 23:09:17;;;;;;;15.05;8.08;;;;;;;15.76;91.90;100701.31;713933;1188;113991;-76
2021/06/09 23:24:38;;;;;;;12.57;7.57;;;;;;;15.54;92.19;100696.59;713673;1176;114116;-77
2021/06/09 23:39:58;;;;;;;14.50;8.50;;;;;;;15.39;93.83;100686.60;713841;1200;113957;-78
2021/06/09 23:55:20;;;;;;;15.98;8.28;;;;;;;15.30;94.54;100692.83;713822;1199;115469;-77
